createdAt,value
2022-12-23T00:01:00.417Z,32.18
2022-12-23T00:01:57.876Z,32.68
2022-12-23T00:02:55.424Z,31.07
2022-12-23T00:03:56.424Z,31.24
2022-12-23T00:04:53.888Z,38.22
2022-12-23T00:05:51.714Z,41.22
2022-12-23T00:06:49.022Z,38.78
2022-12-23T00:07:46.487Z,36.62
2022-12-23T00:08:44.288Z,35.56
2022-12-23T00:09:41.648Z,46.26
2022-12-23T00:10:40.036Z,52.17
2022-12-23T00:11:57.296Z,53.06
2022-12-23T00:13:13.050Z,41.49
2022-12-23T00:14:28.734Z,41.58
2022-12-23T00:15:26.113Z,43.95
2022-12-23T00:16:23.624Z,40.88
2022-12-23T00:17:23.156Z,40.09
2022-12-23T00:18:20.737Z,36.81
2022-12-23T00:19:18.461Z,37.79
2022-12-23T00:20:15.955Z,35.87
2022-12-23T00:21:15.104Z,34.66
2022-12-23T00:22:12.419Z,35.06
2022-12-23T00:23:09.915Z,33.90
2022-12-23T00:24:07.300Z,31.42
2022-12-23T00:25:04.709Z,30.89
2022-12-23T00:26:02.901Z,30.61
2022-12-23T00:27:00.200Z,30.61
2022-12-23T00:28:04.292Z,31.02
2022-12-23T00:29:01.654Z,31.26
2022-12-23T00:29:59.012Z,32.22
2022-12-23T00:30:56.389Z,34.08
2022-12-23T00:31:53.775Z,45.69
2022-12-23T00:32:51.174Z,45.91
2022-12-23T00:33:49.797Z,45.55
2022-12-23T00:34:47.155Z,43.61
2022-12-23T00:35:45.106Z,37.28
2022-12-23T00:36:42.660Z,36.31
2022-12-23T00:37:40.172Z,37.69
2022-12-23T00:38:56.016Z,35.53
2022-12-23T00:40:11.940Z,34.36
2022-12-23T00:41:32.390Z,37.51
2022-12-23T00:42:48.169Z,38.81
2022-12-23T00:43:45.545Z,37.95
2022-12-23T00:44:42.944Z,38.87
2022-12-23T00:45:40.332Z,38.83
2022-12-23T00:46:37.786Z,38.62
2022-12-23T00:47:53.751Z,39.70
2022-12-23T00:49:09.508Z,36.99
2022-12-23T00:50:07.260Z,33.70
2022-12-23T00:51:04.668Z,34.90
2022-12-23T00:52:02.613Z,33.55
2022-12-23T00:53:00.058Z,31.99
2022-12-23T00:53:57.451Z,33.19
2022-12-23T00:54:54.812Z,33.63
2022-12-23T00:55:52.656Z,33.06
2022-12-23T00:56:50.017Z,32.92
2022-12-23T00:57:47.425Z,32.98
2022-12-23T00:58:44.757Z,33.80
2022-12-23T00:59:42.107Z,31.94
2022-12-23T01:00:58.553Z,31.27
2022-12-23T01:02:14.507Z,34.20
2022-12-23T01:03:31.606Z,36.19
2022-12-23T01:04:47.461Z,37.49
2022-12-23T01:05:44.826Z,36.72
2022-12-23T01:06:42.136Z,38.03
2022-12-23T01:07:39.472Z,38.20
2022-12-23T01:08:38.056Z,38.41
2022-12-23T01:09:35.658Z,37.07
2022-12-23T01:10:34.833Z,37.18
2022-12-23T01:11:32.647Z,37.32
2022-12-23T01:12:30.066Z,38.52
2022-12-23T01:13:27.438Z,40.50
2022-12-23T01:14:25.040Z,41.95
2022-12-23T01:15:22.472Z,42.81
2022-12-23T01:16:19.880Z,44.36
2022-12-23T01:17:17.329Z,43.85
2022-12-23T01:18:14.716Z,44.09
2022-12-23T01:19:12.627Z,43.28
2022-12-23T01:20:10.312Z,40.63
2022-12-23T01:21:09.218Z,40.94
2022-12-23T01:22:06.720Z,40.95
2022-12-23T01:23:04.233Z,41.46
2022-12-23T01:24:01.633Z,45.99
2022-12-23T01:24:58.961Z,46.36
2022-12-23T01:25:59.888Z,45.92
2022-12-23T01:26:57.545Z,48.05
2022-12-23T01:27:54.922Z,50.18
2022-12-23T01:28:55.823Z,50.70
2022-12-23T01:29:53.230Z,55.97
2022-12-23T01:30:50.568Z,56.38
2022-12-23T01:31:48.032Z,56.28
2022-12-23T01:32:45.414Z,59.25
2022-12-23T01:33:42.993Z,55.32
2022-12-23T01:34:40.327Z,57.86
2022-12-23T01:35:37.724Z,55.16
2022-12-23T01:36:35.082Z,55.12
2022-12-23T01:37:32.427Z,81.00
2022-12-23T01:38:30.029Z,63.95
2022-12-23T01:39:27.410Z,51.94
2022-12-23T01:40:24.812Z,50.26
2022-12-23T01:41:42.508Z,50.25
2022-12-23T01:42:46.532Z,47.86
2022-12-23T01:43:49.560Z,49.79
2022-12-23T01:44:46.829Z,50.62
2022-12-23T01:45:45.071Z,54.14
2022-12-23T01:46:42.392Z,57.67
2022-12-23T01:47:39.707Z,57.93
2022-12-23T01:48:37.980Z,53.69
2022-12-23T01:49:35.453Z,51.68
2022-12-23T01:50:36.568Z,54.07
2022-12-23T01:51:33.946Z,53.91
2022-12-23T01:52:34.777Z,56.16
2022-12-23T01:53:36.098Z,56.29
2022-12-23T01:54:35.277Z,56.55
2022-12-23T01:55:36.171Z,55.01
2022-12-23T01:56:37.981Z,53.01
2022-12-23T01:57:39.300Z,57.90
2022-12-23T01:58:44.193Z,102.01
2022-12-23T02:00:01.420Z,138.18
2022-12-23T02:01:17.684Z,155.81
2022-12-23T02:02:33.554Z,95.79
2022-12-23T02:03:43.106Z,91.39
2022-12-23T02:04:40.641Z,119.20
2022-12-23T02:05:38.439Z,93.49
2022-12-23T02:07:01.817Z,75.15
2022-12-23T02:08:17.714Z,76.89
2022-12-23T02:09:35.272Z,71.10
2022-12-23T02:10:41.757Z,80.72
2022-12-23T02:11:49.363Z,71.36
2022-12-23T02:13:01.865Z,62.02
2022-12-23T02:14:40.571Z,71.48
2022-12-23T02:16:11.259Z,61.75
2022-12-23T02:17:15.690Z,61.42
2022-12-23T02:18:19.135Z,62.43
2022-12-23T02:19:27.139Z,56.54
2022-12-23T02:20:27.263Z,57.30
2022-12-23T02:21:30.492Z,58.51
2022-12-23T02:22:46.668Z,64.08
2022-12-23T02:23:43.960Z,61.18
2022-12-23T02:24:59.263Z,63.61
2022-12-23T02:26:05.424Z,63.92
2022-12-23T02:27:05.545Z,58.94
2022-12-23T02:28:05.655Z,53.31
2022-12-23T02:29:21.512Z,51.97
2022-12-23T02:30:37.616Z,44.13
2022-12-23T02:31:55.224Z,41.07
2022-12-23T02:33:18.786Z,37.80
2022-12-23T02:34:16.063Z,36.88
2022-12-23T02:35:13.448Z,36.25
2022-12-23T02:36:16.926Z,35.00
2022-12-23T02:37:29.249Z,36.43
2022-12-23T02:38:47.140Z,38.52
2022-12-23T02:39:44.428Z,36.83
2022-12-23T02:41:07.852Z,35.75
2022-12-23T02:42:10.618Z,35.13
2022-12-23T02:43:10.678Z,33.73
2022-12-23T02:44:24.331Z,34.77
2022-12-23T02:45:40.218Z,33.02
2022-12-23T02:46:50.201Z,33.90
2022-12-23T02:47:55.069Z,32.99
2022-12-23T02:49:01.897Z,32.15
2022-12-23T02:50:04.098Z,32.04
2022-12-23T02:51:02.875Z,31.26
2022-12-23T02:52:04.123Z,31.33
2022-12-23T02:53:09.404Z,30.78
2022-12-23T02:54:10.422Z,30.13
2022-12-23T02:55:15.111Z,27.73
2022-12-23T02:56:15.244Z,28.32
2022-12-23T02:57:17.009Z,27.74
2022-12-23T02:58:18.082Z,25.69
2022-12-23T02:59:22.410Z,23.03
2022-12-23T03:00:19.928Z,22.48
2022-12-23T03:01:19.615Z,23.05
2022-12-23T03:02:17.565Z,23.59
2022-12-23T03:03:17.272Z,24.95
2022-12-23T03:04:15.248Z,25.12
2022-12-23T03:05:31.119Z,24.80
2022-12-23T03:06:28.411Z,24.47
2022-12-23T03:07:39.251Z,24.76
2022-12-23T03:08:42.755Z,25.08
2022-12-23T03:10:00.369Z,26.47
2022-12-23T03:10:57.702Z,24.20
2022-12-23T03:11:55.038Z,24.00
2022-12-23T03:12:52.438Z,23.56
2022-12-23T03:14:08.228Z,25.74
2022-12-23T03:15:14.551Z,24.57
2022-12-23T03:16:29.375Z,26.73
2022-12-23T03:17:45.261Z,25.62
2022-12-23T03:18:45.454Z,26.82
2022-12-23T03:19:50.196Z,27.17
2022-12-23T03:20:54.817Z,26.66
2022-12-23T03:21:55.006Z,27.79
2022-12-23T03:23:06.272Z,27.33
2022-12-23T03:24:23.921Z,24.70
2022-12-23T03:25:30.163Z,26.74
2022-12-23T03:26:33.839Z,27.99
2022-12-23T03:27:37.285Z,30.00
2022-12-23T03:28:49.312Z,31.33
2022-12-23T03:29:46.605Z,35.51
2022-12-23T03:30:48.488Z,35.49
2022-12-23T03:31:47.810Z,35.88
2022-12-23T03:32:57.964Z,35.40
2022-12-23T03:34:05.224Z,41.13
2022-12-23T03:35:06.917Z,41.07
2022-12-23T03:36:12.214Z,37.14
2022-12-23T03:37:12.130Z,37.82
2022-12-23T03:38:13.047Z,38.65
2022-12-23T03:39:14.538Z,40.27
2022-12-23T03:40:18.726Z,41.65
2022-12-23T03:41:27.274Z,42.30
2022-12-23T03:42:32.283Z,40.28
2022-12-23T03:43:34.134Z,40.08
2022-12-23T03:44:36.435Z,40.83
2022-12-23T03:45:40.810Z,39.23
2022-12-23T03:46:47.076Z,39.49
2022-12-23T03:47:50.779Z,40.07
2022-12-23T03:48:51.981Z,39.58
2022-12-23T03:49:53.986Z,39.07
2022-12-23T03:50:54.552Z,39.29
2022-12-23T03:51:56.730Z,37.47
2022-12-23T03:53:12.708Z,38.07
2022-12-23T03:54:17.645Z,38.31
2022-12-23T03:55:19.986Z,37.94
2022-12-23T03:56:21.698Z,37.60
2022-12-23T03:57:22.231Z,39.07
2022-12-23T03:58:38.185Z,39.05
2022-12-23T03:59:39.120Z,37.66
2022-12-23T04:00:42.331Z,37.46
2022-12-23T04:01:39.743Z,36.58
2022-12-23T04:02:47.518Z,37.77
2022-12-23T04:04:00.666Z,40.15
2022-12-23T04:04:58.008Z,39.09
2022-12-23T04:05:59.819Z,39.39
2022-12-23T04:07:05.471Z,39.84
2022-12-23T04:08:08.616Z,39.91
2022-12-23T04:09:07.883Z,39.33
2022-12-23T04:10:06.478Z,39.22
2022-12-23T04:11:04.247Z,40.08
2022-12-23T04:12:02.042Z,40.34
2022-12-23T04:12:59.587Z,38.09
2022-12-23T04:13:57.116Z,38.78
2022-12-23T04:14:54.550Z,38.14
2022-12-23T04:15:52.108Z,37.24
2022-12-23T04:16:53.857Z,37.81
2022-12-23T04:17:52.125Z,38.58
2022-12-23T04:18:49.465Z,38.24
2022-12-23T04:19:47.310Z,38.72
2022-12-23T04:20:44.629Z,40.02
2022-12-23T04:21:42.021Z,40.34
2022-12-23T04:22:39.732Z,37.71
2022-12-23T04:23:37.168Z,38.19
2022-12-23T04:24:34.469Z,37.45
2022-12-23T04:25:31.999Z,36.98
2022-12-23T04:26:29.358Z,37.60
2022-12-23T04:27:26.741Z,36.96
2022-12-23T04:28:24.106Z,37.09
2022-12-23T04:29:21.507Z,38.99
2022-12-23T04:30:18.892Z,39.66
2022-12-23T04:31:16.361Z,38.60
2022-12-23T04:32:13.821Z,39.28
2022-12-23T04:33:12.157Z,39.43
2022-12-23T04:34:09.529Z,39.55
2022-12-23T04:35:07.114Z,39.00
2022-12-23T04:36:04.566Z,38.51
2022-12-23T04:37:01.953Z,39.15
2022-12-23T04:38:00.193Z,39.05
2022-12-23T04:38:57.581Z,39.85
2022-12-23T04:39:54.929Z,39.11
2022-12-23T04:40:52.273Z,40.11
2022-12-23T04:41:49.609Z,41.18
2022-12-23T04:42:46.978Z,41.10
2022-12-23T04:43:49.368Z,39.68
2022-12-23T04:44:50.049Z,40.46
2022-12-23T04:45:50.697Z,40.48
2022-12-23T04:46:48.025Z,39.27
2022-12-23T04:47:45.484Z,38.64
2022-12-23T04:48:42.845Z,40.08
2022-12-23T04:49:40.275Z,39.14
2022-12-23T04:50:37.607Z,38.82
2022-12-23T04:51:35.004Z,40.17
2022-12-23T04:52:32.389Z,39.55
2022-12-23T04:53:29.793Z,39.24
2022-12-23T04:54:27.204Z,40.23
2022-12-23T04:55:24.591Z,41.78
2022-12-23T04:56:22.012Z,43.79
2022-12-23T04:57:19.337Z,44.19
2022-12-23T04:58:16.671Z,44.69
2022-12-23T04:59:14.156Z,46.06
2022-12-23T05:00:11.699Z,43.66
2022-12-23T05:01:10.930Z,44.88
2022-12-23T05:02:09.084Z,46.12
2022-12-23T05:03:06.557Z,44.46
2022-12-23T05:04:04.007Z,44.00
2022-12-23T05:05:01.455Z,42.80
2022-12-23T05:05:58.863Z,41.56
2022-12-23T05:06:56.193Z,40.01
2022-12-23T05:08:01.902Z,36.42
2022-12-23T05:08:59.287Z,37.85
2022-12-23T05:10:01.671Z,36.89
2022-12-23T05:10:59.484Z,35.97
2022-12-23T05:11:56.797Z,35.51
2022-12-23T05:12:54.141Z,36.72
2022-12-23T05:13:51.516Z,34.22
2022-12-23T05:14:48.940Z,33.15
2022-12-23T05:15:46.747Z,32.58
2022-12-23T05:16:44.166Z,30.64
2022-12-23T05:17:41.529Z,27.92
2022-12-23T05:18:38.852Z,27.00
2022-12-23T05:19:36.355Z,28.95
2022-12-23T05:20:33.718Z,30.17
2022-12-23T05:21:31.212Z,30.52
2022-12-23T05:22:28.548Z,30.04
2022-12-23T05:23:25.982Z,30.90
2022-12-23T05:24:23.363Z,29.69
2022-12-23T05:25:20.711Z,31.35
2022-12-23T05:26:18.225Z,31.72
2022-12-23T05:27:15.627Z,29.06
2022-12-23T05:28:13.933Z,28.83
2022-12-23T05:29:11.281Z,29.57
2022-12-23T05:30:08.939Z,31.22
2022-12-23T05:31:07.822Z,31.81
2022-12-23T05:32:05.309Z,32.54
2022-12-23T05:33:02.754Z,34.20
2022-12-23T05:34:06.059Z,33.68
2022-12-23T05:35:04.085Z,32.02
2022-12-23T05:36:01.620Z,33.30
2022-12-23T05:36:58.954Z,34.07
2022-12-23T05:37:57.818Z,34.54
2022-12-23T05:38:55.180Z,36.52
2022-12-23T05:39:52.496Z,36.79
2022-12-23T05:40:50.389Z,35.86
2022-12-23T05:41:47.739Z,38.22
2022-12-23T05:42:45.508Z,39.12
2022-12-23T05:43:43.068Z,40.18
2022-12-23T05:44:40.421Z,40.87
2022-12-23T05:45:38.153Z,42.19
2022-12-23T05:46:35.650Z,45.51
2022-12-23T05:47:33.005Z,47.14
2022-12-23T05:48:30.386Z,47.75
2022-12-23T05:49:27.793Z,51.13
2022-12-23T05:50:25.152Z,50.86
2022-12-23T05:51:22.475Z,50.25
2022-12-23T05:52:19.853Z,51.07
2022-12-23T05:53:17.319Z,51.67
2022-12-23T05:54:14.681Z,51.75
2022-12-23T05:55:12.018Z,55.07
2022-12-23T05:56:09.407Z,54.96
2022-12-23T05:57:06.784Z,55.20
2022-12-23T05:58:04.141Z,54.04
2022-12-23T05:59:01.463Z,55.12
2022-12-23T05:59:58.899Z,54.43
2022-12-23T06:00:56.262Z,54.53
2022-12-23T06:01:53.668Z,54.08
2022-12-23T06:02:53.765Z,53.90
2022-12-23T06:03:51.790Z,55.57
2022-12-23T06:04:49.791Z,56.42
2022-12-23T06:05:50.065Z,55.24
2022-12-23T06:06:47.370Z,55.23
2022-12-23T06:07:44.707Z,56.65
2022-12-23T06:08:42.048Z,55.97
2022-12-23T06:09:39.395Z,54.14
2022-12-23T06:10:36.733Z,55.50
2022-12-23T06:11:34.090Z,55.59
2022-12-23T06:12:31.490Z,55.70
2022-12-23T06:13:28.931Z,53.05
2022-12-23T06:14:29.140Z,51.29
2022-12-23T06:15:26.954Z,48.38
2022-12-23T06:16:24.421Z,47.86
2022-12-23T06:17:21.837Z,48.36
2022-12-23T06:18:19.161Z,49.97
2022-12-23T06:19:16.748Z,51.12
2022-12-23T06:20:20.409Z,50.69
2022-12-23T06:21:18.142Z,54.57
2022-12-23T06:22:15.699Z,51.56
2022-12-23T06:23:13.119Z,49.20
2022-12-23T06:24:10.722Z,50.65
2022-12-23T06:25:08.227Z,49.21
2022-12-23T06:26:05.660Z,49.93
2022-12-23T06:27:02.978Z,48.33
2022-12-23T06:28:00.257Z,48.72
2022-12-23T06:28:57.599Z,46.12
2022-12-23T06:29:55.048Z,43.46
2022-12-23T06:30:53.772Z,38.82
2022-12-23T06:31:51.214Z,37.65
2022-12-23T06:32:48.627Z,41.18
2022-12-23T06:33:45.937Z,46.00
2022-12-23T06:34:43.301Z,44.65
2022-12-23T06:35:40.618Z,46.12
2022-12-23T06:36:37.980Z,47.24
2022-12-23T06:37:35.431Z,47.03
2022-12-23T06:38:32.839Z,47.50
2022-12-23T06:39:30.168Z,48.54
2022-12-23T06:40:29.303Z,48.15
2022-12-23T06:41:26.846Z,47.42
2022-12-23T06:42:24.155Z,47.09
2022-12-23T06:43:21.784Z,45.60
2022-12-23T06:44:19.146Z,45.57
2022-12-23T06:45:16.463Z,42.26
2022-12-23T06:46:14.150Z,41.55
2022-12-23T06:47:11.546Z,43.86
2022-12-23T06:48:08.977Z,43.61
2022-12-23T06:49:12.781Z,44.04
2022-12-23T06:50:11.114Z,47.29
2022-12-23T06:51:08.534Z,48.20
2022-12-23T06:52:06.205Z,45.59
2022-12-23T06:53:03.905Z,46.97
2022-12-23T06:54:01.422Z,47.22
2022-12-23T06:54:58.807Z,46.40
2022-12-23T06:55:59.923Z,46.98
2022-12-23T06:56:57.421Z,47.14
2022-12-23T06:57:55.005Z,45.37
2022-12-23T06:58:55.043Z,42.21
2022-12-23T06:59:52.407Z,38.29
2022-12-23T07:00:49.828Z,38.14
2022-12-23T07:01:47.401Z,33.61
2022-12-23T07:02:44.883Z,32.23
2022-12-23T07:03:42.497Z,34.90
2022-12-23T07:04:39.914Z,56.37
2022-12-23T07:05:37.907Z,76.19
2022-12-23T07:06:35.344Z,75.73
2022-12-23T07:07:32.975Z,48.09
2022-12-23T07:08:30.431Z,40.05
2022-12-23T07:09:27.942Z,38.24
2022-12-23T07:10:25.376Z,41.93
2022-12-23T07:11:22.700Z,39.69
2022-12-23T07:12:20.049Z,36.54
2022-12-23T07:13:17.362Z,38.48
2022-12-23T07:14:14.762Z,39.38
2022-12-23T07:15:12.193Z,37.05
2022-12-23T07:16:09.974Z,35.61
2022-12-23T07:17:07.486Z,34.76
2022-12-23T07:18:05.226Z,36.50
2022-12-23T07:19:02.691Z,34.43
2022-12-23T07:20:00.164Z,33.43
2022-12-23T07:21:00.174Z,31.76
2022-12-23T07:21:57.618Z,32.15
2022-12-23T07:22:55.818Z,31.31
2022-12-23T07:23:53.123Z,31.14
2022-12-23T07:24:50.801Z,31.52
2022-12-23T07:25:48.195Z,32.07
2022-12-23T07:26:45.560Z,31.29
2022-12-23T07:27:42.905Z,30.39
2022-12-23T07:28:40.265Z,33.64
2022-12-23T07:29:37.646Z,35.39
2022-12-23T07:30:35.579Z,35.08
2022-12-23T07:31:33.011Z,34.63
2022-12-23T07:32:30.392Z,33.02
2022-12-23T07:33:27.773Z,31.50
2022-12-23T07:34:25.204Z,30.00
2022-12-23T07:35:22.605Z,30.29
2022-12-23T07:36:19.965Z,31.85
2022-12-23T07:37:17.344Z,31.12
2022-12-23T07:38:14.822Z,32.66
2022-12-23T07:39:12.215Z,35.25
2022-12-23T07:40:09.952Z,36.90
2022-12-23T07:41:07.291Z,36.73
2022-12-23T07:42:33.884Z,38.41
2022-12-23T07:43:21.986Z,38.86
2022-12-23T07:44:19.303Z,39.33
2022-12-23T07:45:16.736Z,39.48
2022-12-23T07:46:14.234Z,41.06
2022-12-23T07:47:11.613Z,42.31
2022-12-23T07:48:09.571Z,42.36
2022-12-23T07:49:06.947Z,42.61
2022-12-23T07:50:04.393Z,44.89
2022-12-23T07:51:04.889Z,45.03
2022-12-23T07:52:02.330Z,44.31
2022-12-23T07:52:59.616Z,43.63
2022-12-23T07:53:57.512Z,44.08
2022-12-23T07:54:54.858Z,46.58
2022-12-23T07:55:56.685Z,47.30
2022-12-23T07:56:55.799Z,48.49
2022-12-23T07:57:53.320Z,52.24
2022-12-23T07:58:51.483Z,56.83
2022-12-23T07:59:48.790Z,60.80
2022-12-23T08:00:46.122Z,62.12
2022-12-23T08:01:44.216Z,63.69
2022-12-23T08:02:42.148Z,63.88
2022-12-23T08:03:39.599Z,63.82
2022-12-23T08:04:42.552Z,64.94
2022-12-23T08:05:43.405Z,67.45
2022-12-23T08:06:41.429Z,66.85
2022-12-23T08:07:39.349Z,66.69
2022-12-23T08:08:37.404Z,68.88
2022-12-23T08:09:34.845Z,68.82
2022-12-23T08:10:32.222Z,69.83
2022-12-23T08:11:29.533Z,69.44
2022-12-23T08:12:26.955Z,70.44
2022-12-23T08:13:24.260Z,70.75
2022-12-23T08:14:21.703Z,69.82
2022-12-23T08:15:19.092Z,68.46
2022-12-23T08:16:16.583Z,68.20
2022-12-23T08:17:14.326Z,68.38
2022-12-23T08:18:11.738Z,68.05
2022-12-23T08:19:09.132Z,66.13
2022-12-23T08:20:06.878Z,65.72
2022-12-23T08:21:15.143Z,60.23
2022-12-23T08:22:12.475Z,57.79
2022-12-23T08:23:09.792Z,57.96
2022-12-23T08:24:07.235Z,55.35
2022-12-23T08:25:04.837Z,54.16
2022-12-23T08:26:04.473Z,53.33
2022-12-23T08:27:04.216Z,52.78
2022-12-23T08:28:01.628Z,53.28
2022-12-23T08:29:00.021Z,56.40
2022-12-23T08:29:57.409Z,57.02
2022-12-23T08:30:55.329Z,58.96
2022-12-23T08:31:54.192Z,63.80
2022-12-23T08:32:51.565Z,64.45
2022-12-23T08:33:50.377Z,67.24
2022-12-23T08:34:47.766Z,66.97
2022-12-23T08:35:45.107Z,67.58
2022-12-23T08:36:42.512Z,64.85
2022-12-23T08:37:39.882Z,65.46
2022-12-23T08:38:37.301Z,65.09
2022-12-23T08:39:34.709Z,64.04
2022-12-23T08:40:32.101Z,63.07
2022-12-23T08:41:31.185Z,63.41
2022-12-23T08:42:28.616Z,65.21
2022-12-23T08:43:30.244Z,65.05
2022-12-23T08:44:32.598Z,65.36
2022-12-23T08:45:30.017Z,64.84
2022-12-23T08:46:27.563Z,67.37
2022-12-23T08:47:24.944Z,65.84
2022-12-23T08:48:22.295Z,64.87
2022-12-23T08:49:19.694Z,68.04
2022-12-23T08:50:17.086Z,66.21
2022-12-23T08:51:16.789Z,67.79
2022-12-23T08:52:14.155Z,68.76
2022-12-23T08:53:12.350Z,69.08
2022-12-23T08:54:10.349Z,68.78
2022-12-23T08:55:07.916Z,68.16
2022-12-23T08:56:07.223Z,69.43
2022-12-23T08:57:04.688Z,74.85
2022-12-23T08:58:02.077Z,76.12
2022-12-23T08:59:00.464Z,77.79
2022-12-23T08:59:57.848Z,75.95
2022-12-23T09:00:55.236Z,75.57
2022-12-23T09:01:52.739Z,74.98
2022-12-23T09:02:50.276Z,74.50
2022-12-23T09:03:47.840Z,75.87
2022-12-23T09:04:45.197Z,76.75
2022-12-23T09:05:42.562Z,82.22
2022-12-23T09:06:41.958Z,81.47
2022-12-23T09:07:39.300Z,88.39
2022-12-23T09:08:36.770Z,89.10
2022-12-23T09:09:34.164Z,93.44
2022-12-23T09:10:31.517Z,94.19
2022-12-23T09:11:29.930Z,93.77
2022-12-23T09:12:27.308Z,95.36
2022-12-23T09:13:32.746Z,96.15
2022-12-23T09:14:32.390Z,95.59
2022-12-23T09:15:29.843Z,93.52
2022-12-23T09:16:27.706Z,96.54
2022-12-23T09:17:25.104Z,97.27
2022-12-23T09:18:22.573Z,96.11
2022-12-23T09:19:20.476Z,94.81
2022-12-23T09:20:17.802Z,96.56
2022-12-23T09:21:17.956Z,98.58
2022-12-23T09:22:15.346Z,99.12
2022-12-23T09:23:12.754Z,95.72
2022-12-23T09:24:10.119Z,94.55
2022-12-23T09:25:07.731Z,99.44
2022-12-23T09:26:05.765Z,98.75
2022-12-23T09:27:03.231Z,101.41
2022-12-23T09:28:00.624Z,103.41
2022-12-23T09:28:58.627Z,102.73
2022-12-23T09:29:55.984Z,101.24
2022-12-23T09:30:53.391Z,104.41
2022-12-23T09:31:50.889Z,107.11
2022-12-23T09:32:48.343Z,107.93
2022-12-23T09:33:49.685Z,105.98
2022-12-23T09:34:47.010Z,106.58
2022-12-23T09:35:44.942Z,107.41
2022-12-23T09:36:42.339Z,105.00
2022-12-23T09:37:39.726Z,105.78
2022-12-23T09:38:38.013Z,100.59
2022-12-23T09:39:35.319Z,103.65
2022-12-23T09:40:35.336Z,101.46
2022-12-23T09:41:35.555Z,102.35
2022-12-23T09:42:50.867Z,98.49
2022-12-23T09:44:12.835Z,98.26
2022-12-23T09:45:16.133Z,97.91
2022-12-23T09:46:22.330Z,95.79
2022-12-23T09:47:23.131Z,93.85
2022-12-23T09:48:28.506Z,93.71
2022-12-23T09:49:27.274Z,93.54
2022-12-23T09:50:30.250Z,94.13
2022-12-23T09:51:29.241Z,92.98
2022-12-23T09:52:38.573Z,94.16
2022-12-23T09:53:56.179Z,94.28
2022-12-23T09:54:55.709Z,91.34
2022-12-23T09:56:21.937Z,90.31
2022-12-23T09:57:23.155Z,88.29
2022-12-23T09:58:21.017Z,90.60
2022-12-23T09:59:36.889Z,90.88
2022-12-23T10:00:39.609Z,87.79
2022-12-23T10:01:56.276Z,86.05
2022-12-23T10:03:08.881Z,85.83
2022-12-23T10:04:29.102Z,86.05
2022-12-23T10:05:50.901Z,86.47
2022-12-23T10:07:03.637Z,86.42
2022-12-23T10:08:12.976Z,82.92
2022-12-23T10:09:14.133Z,82.14
2022-12-23T10:10:18.269Z,83.21
2022-12-23T10:11:21.658Z,83.54
2022-12-23T10:12:28.245Z,83.20
2022-12-23T10:13:40.834Z,81.69
2022-12-23T10:14:39.423Z,79.30
2022-12-23T10:15:44.519Z,76.92
2022-12-23T10:16:47.877Z,76.41
2022-12-23T10:17:46.737Z,77.09
2022-12-23T10:19:04.303Z,76.96
2022-12-23T10:20:05.861Z,74.76
2022-12-23T10:21:07.451Z,79.32
2022-12-23T10:22:11.496Z,77.75
2022-12-23T10:23:16.542Z,77.25
2022-12-23T10:24:19.724Z,77.33
2022-12-23T10:25:23.834Z,74.82
2022-12-23T10:26:30.000Z,69.22
2022-12-23T10:27:40.696Z,62.15
2022-12-23T10:28:38.070Z,46.59
2022-12-23T10:29:35.600Z,44.86
2022-12-23T10:31:23.292Z,43.90
2022-12-23T10:32:15.198Z,50.95
2022-12-23T10:33:36.989Z,41.78
2022-12-23T10:34:38.395Z,35.95
2022-12-23T10:36:04.609Z,39.97
2022-12-23T10:37:04.647Z,41.71
2022-12-23T10:38:22.284Z,50.45
2022-12-23T10:39:24.714Z,62.52
2022-12-23T10:40:51.248Z,64.78
2022-12-23T10:42:07.366Z,63.56
2022-12-23T10:43:04.809Z,63.10
2022-12-23T10:44:22.396Z,57.94
2022-12-23T10:45:19.717Z,60.29
2022-12-23T10:46:26.005Z,60.75
2022-12-23T10:47:38.435Z,60.36
2022-12-23T10:48:50.226Z,59.48
2022-12-23T10:49:50.324Z,60.20
2022-12-23T10:50:55.502Z,55.47
2022-12-23T10:51:57.759Z,53.84
2022-12-23T10:52:57.950Z,53.50
2022-12-23T10:53:55.330Z,56.75
2022-12-23T10:54:52.739Z,58.76
2022-12-23T10:55:50.459Z,60.70
2022-12-23T10:56:48.024Z,61.13
2022-12-23T10:57:46.050Z,59.46
2022-12-23T10:58:45.733Z,60.75
2022-12-23T10:59:43.727Z,59.27
2022-12-23T11:00:44.262Z,58.78
2022-12-23T11:01:47.631Z,56.68
2022-12-23T11:02:51.395Z,55.22
2022-12-23T11:03:52.653Z,55.61
2022-12-23T11:04:50.755Z,55.93
2022-12-23T11:05:50.883Z,56.43
2022-12-23T11:07:18.276Z,55.96
2022-12-23T11:08:11.211Z,54.17
2022-12-23T11:09:16.246Z,55.62
2022-12-23T11:10:21.790Z,55.00
2022-12-23T11:11:19.137Z,50.96
2022-12-23T11:12:21.996Z,47.55
2022-12-23T11:13:34.778Z,50.44
2022-12-23T11:14:36.950Z,53.91
2022-12-23T11:15:38.963Z,49.56
2022-12-23T11:16:45.231Z,50.08
2022-12-23T11:17:42.623Z,51.48
2022-12-23T11:18:52.311Z,47.45
2022-12-23T11:20:08.307Z,45.55
2022-12-23T11:21:06.475Z,41.41
2022-12-23T11:22:03.877Z,40.13
2022-12-23T11:23:02.586Z,36.14
2022-12-23T11:24:09.001Z,29.91
2022-12-23T11:25:24.956Z,29.69
2022-12-23T11:26:22.359Z,31.43
2022-12-23T11:27:19.890Z,32.22
2022-12-23T11:28:19.710Z,30.24
2022-12-23T11:29:27.765Z,29.16
2022-12-23T11:30:26.185Z,26.03
2022-12-23T11:31:28.584Z,24.65
2022-12-23T11:32:27.920Z,21.08
2022-12-23T11:33:28.461Z,19.40
2022-12-23T11:34:28.453Z,20.00
2022-12-23T11:35:28.204Z,20.49
2022-12-23T11:36:28.128Z,17.41
2022-12-23T11:37:31.254Z,16.41
2022-12-23T11:38:28.642Z,17.32
2022-12-23T11:39:32.923Z,17.24
2022-12-23T11:40:38.767Z,16.15
2022-12-23T11:41:38.908Z,16.66
2022-12-23T11:42:36.361Z,17.96
2022-12-23T11:43:34.245Z,18.83
2022-12-23T11:44:39.223Z,19.66
2022-12-23T11:45:38.005Z,19.16
2022-12-23T11:46:35.771Z,19.77
2022-12-23T11:47:38.459Z,20.73
2022-12-23T11:48:35.883Z,21.00
2022-12-23T11:49:33.199Z,21.39
2022-12-23T11:50:35.832Z,23.44
2022-12-23T11:51:34.141Z,24.70
2022-12-23T11:52:33.491Z,24.27
2022-12-23T11:53:32.193Z,25.19
2022-12-23T11:54:30.505Z,24.53
2022-12-23T11:55:29.865Z,25.94
2022-12-23T11:56:29.131Z,25.12
2022-12-23T11:57:33.675Z,25.76
2022-12-23T11:58:36.188Z,25.94
2022-12-23T11:59:37.199Z,29.05
2022-12-23T12:00:42.767Z,30.18
2022-12-23T12:01:47.336Z,28.18
2022-12-23T12:02:48.134Z,29.70
2022-12-23T12:03:51.132Z,32.40
2022-12-23T12:04:56.339Z,30.99
2022-12-23T12:05:58.317Z,32.93
2022-12-23T12:06:56.856Z,32.59
2022-12-23T12:07:59.461Z,32.15
2022-12-23T12:08:59.759Z,33.20
2022-12-23T12:09:59.425Z,34.44
2022-12-23T12:11:02.470Z,36.14
2022-12-23T12:12:06.403Z,35.10
2022-12-23T12:13:06.100Z,36.28
2022-12-23T12:14:05.802Z,35.65
2022-12-23T12:15:03.975Z,35.96
2022-12-23T12:16:13.287Z,37.28
2022-12-23T12:17:29.310Z,37.59
2022-12-23T12:18:28.004Z,39.31
2022-12-23T12:19:30.021Z,40.47
2022-12-23T12:20:27.359Z,43.60
2022-12-23T12:21:28.785Z,43.95
2022-12-23T12:22:32.962Z,42.49
2022-12-23T12:23:41.535Z,41.85
2022-12-23T12:24:42.017Z,40.70
2022-12-23T12:25:58.108Z,40.70
2022-12-23T12:27:00.632Z,44.38
2022-12-23T12:28:00.700Z,45.57
2022-12-23T12:29:13.667Z,46.46
2022-12-23T12:30:18.007Z,45.72
2022-12-23T12:31:29.326Z,45.25
2022-12-23T12:32:50.157Z,43.77
2022-12-23T12:33:52.221Z,41.01
2022-12-23T12:35:03.298Z,39.86
2022-12-23T12:36:28.104Z,35.27
2022-12-23T12:37:37.520Z,36.38
2022-12-23T12:38:38.230Z,35.37
2022-12-23T12:39:43.732Z,34.27
2022-12-23T12:40:44.788Z,32.96
2022-12-23T12:41:49.853Z,32.89
2022-12-23T12:42:59.953Z,33.05
2022-12-23T12:44:05.746Z,34.59
2022-12-23T12:45:18.204Z,33.14
2022-12-23T12:46:18.401Z,32.50
2022-12-23T12:48:57.850Z,33.89
2022-12-23T12:50:06.627Z,28.71
2022-12-23T12:51:15.888Z,29.08
2022-12-23T12:52:15.524Z,30.29
2022-12-23T12:53:18.878Z,31.70
2022-12-23T12:54:16.259Z,30.60
2022-12-23T12:55:23.173Z,31.77
2022-12-23T12:56:28.619Z,31.48
2022-12-23T12:57:26.388Z,29.80
2022-12-23T12:58:24.453Z,26.30
2022-12-23T12:59:27.153Z,27.73
2022-12-23T13:00:25.378Z,27.71
2022-12-23T13:01:25.513Z,27.60
2022-12-23T13:02:30.577Z,25.11
2022-12-23T13:03:50.731Z,15.65
2022-12-23T13:05:06.970Z,19.23
2022-12-23T13:06:24.591Z,20.52
2022-12-23T13:07:21.911Z,20.60
2022-12-23T13:08:25.170Z,21.25
2022-12-23T13:09:22.711Z,19.95
2022-12-23T13:10:38.601Z,20.62
2022-12-23T13:11:35.952Z,20.41